Terminal Aerodrome Forecast
Issued by NWS

Home | Current Version | Previous Version | Text Only | Print | Product List | Glossary On
Versions: 1 2 3 4 5 6 7 8 9 10 11 12 13 14 15 16 17 18 19 20
901
FTUS44 KLZK 221120
TAFLLQ
TAF
KLLQ 221120Z 2212/2312 20005KT 6SM -TSRA BR BKN030CB OVC050
     FM221400 22006KT P6SM -RA VCTS BKN025CB OVC050
     FM222100 27010G20KT P6SM VCSH SCT025 BKN040
     FM230300 32015G20KT P6SM SCT040=

USA.gov is the U.S. government's official web portal to all federal, state and local government web resources and services.